Wednesday, August 15, 2018, 3:43 AM CDT
Back to Local

KENW, Kenosha Regional Airport

Location: Kenosha, WI, United States Lat: 42.6
Local Time: 3:43 AM CDT ( 8:43 GMT) Lon: -87.933
Time Zone: US/Central Elev: 741 ft

Show me the last for .
Show Coded

Time T Td Feel RH Dir Speed Gust Alt SLP Vis Weather Sky Remarks
2018-08-15 02:53 68 68 - 100 - Calm - 29.95 29.93 6 BR CLR None
2018-08-15 01:53 69 68 - 96 - Calm - 29.94 29.92 7 CLR None
2018-08-15 00:53 69 69 - 100 - Calm - 29.95 29.93 7 CLR 6-hr Min Temp (1am): 68.0°F
6-hr Max Temp (1am): 81.0°F
24-hr Min Temp (1am): 64.0°F
24-hr Max Temp (1am): 88.0°F
2018-08-14 23:53 71 70 76 96 - Calm - 29.95 29.93 7 CLR None
2018-08-14 22:53 71 70 76 96 210° 3 - 29.95 29.93 8 CLR None
2018-08-14 21:53 71 69 76 93 180° 3 - 29.97 29.95 9 CLR None
2018-08-14 20:53 73 70 77 90 - Calm - 29.97 29.95 9 CLR None
2018-08-14 19:53 76 70 80 81 - Calm - 29.95 29.94 10 CLR None
2018-08-14 18:53 81 71 86 71 - Calm - 29.95 29.93 10 CLR 6-hr Min Temp (7pm): 81.0°F
6-hr Max Temp (7pm): 88.0°F
2018-08-14 17:53 82 70 86 67 250° 3 - 29.95 29.93 10 CLR None
2018-08-14 16:53 82 71 87 69 290° 3 - 29.96 29.94 10 SCT055 None
2018-08-14 15:53 85 68 89 57 280° 5 - 29.96 29.95 10 CLR None
2018-08-14 14:53 87 66 90 49 270° 9 - 29.97 29.95 10 CLR None
2018-08-14 13:53 87 67 91 51 250° 7 - 29.98 29.97 10 FEW048 None
2018-08-14 12:53 86 66 89 51 250° 9 - 29.99 29.98 10 FEW047 6-hr Min Temp (1pm): 66.0°F
6-hr Max Temp (1pm): 86.0°F
2018-08-14 11:53 84 68 88 58 290° 6 - 30.00 29.98 10 FEW041 None
2018-08-14 10:53 83 70 87 65 280° 6 - 30.00 29.98 10 CLR None
2018-08-14 09:53 80 69 84 69 300° 8 - 30.00 29.99 10 CLR None
2018-08-14 08:53 76 68 79 76 260° 6 - 30.01 29.99 10 CLR None
2018-08-14 07:53 71 68 76 90 270° 5 - 30.01 29.99 9 CLR None
2018-08-14 06:53 66 65 - 96 270° 3 - 30.00 29.99 7 CLR 6-hr Min Temp (7am): 64.0°F
6-hr Max Temp (7am): 68.0°F
2018-08-14 05:53 65 64 - 96 270° 3 - 29.99 29.98 8 CLR None
2018-08-14 04:53 67 66 - 96 280° 5 - 29.99 29.98 9 CLR None
2018-08-14 03:53 65 65 - 100 260° 6 - 29.99 29.98 8 CLR None

Support USWX by starting your Amazon purchase here.